Time;durP1;ratioP1;P1;durP2;ratioP2;P2;SDS_P1;SDS_P2;PMS_P1;PMS_P2;Temp;Humidity;BMP_temperature;BMP_pressure;BME280_temperature;BME280_humidity;BME280_pressure;Samples;Min_cycle;Max_cycle;Signal;HPM_P1;HPM_P2
2022/09/12 00:01:50;;;;;;;;;;;14.10;99.90;;;;;;4988805;28;20332;-66
2022/09/12 00:04:17;;;;;;;;;;;14.10;99.90;;;;;;5014203;28;19926;-67
2022/09/12 00:06:44;;;;;;;;;;;14.10;99.90;;;;;;5001172;28;19926;-67
2022/09/12 00:09:12;;;;;;;;;;;14.10;99.90;;;;;;5000944;28;19934;-67
2022/09/12 00:11:40;;;;;;;;;;;14.10;99.90;;;;;;5012044;28;19925;-67
2022/09/12 00:14:08;;;;;;;;;;;14.10;99.90;;;;;;5002857;28;20321;-67
2022/09/12 00:16:35;;;;;;;;;;;14.10;99.90;;;;;;5015045;28;19933;-67
2022/09/12 00:19:04;;;;;;;;;;;14.10;99.90;;;;;;5010221;28;19979;-66
2022/09/12 00:21:32;;;;;;;;;;;14.10;99.90;;;;;;5008198;28;19930;-67
2022/09/12 00:23:59;;;;;;;;;;;14.10;99.90;;;;;;5018638;28;20456;-67
2022/09/12 00:26:26;;;;;;;;;;;14.10;99.90;;;;;;5022739;28;19930;-67
2022/09/12 00:28:53;;;;;;;;;;;14.00;99.90;;;;;;4996993;28;19925;-67
2022/09/12 00:31:22;;;;;;;;;;;14.00;99.90;;;;;;5015478;28;20286;-67
2022/09/12 00:33:49;;;;;;;;;;;14.10;99.90;;;;;;5024741;28;20381;-66
2022/09/12 00:36:19;;;;;;;;;;;14.00;99.90;;;;;;4999881;28;19929;-67
2022/09/12 00:38:46;;;;;;;;;;;14.00;99.90;;;;;;5016761;28;20282;-67
2022/09/12 00:41:15;;;;;;;;;;;14.00;99.90;;;;;;5004004;28;19950;-67
2022/09/12 00:43:43;;;;;;;;;;;13.90;99.90;;;;;;5010034;28;19934;-66
2022/09/12 00:46:13;;;;;;;;;;;13.90;99.90;;;;;;5001614;28;19926;-67
2022/09/12 00:48:43;;;;;;;;;;;13.80;99.90;;;;;;5011031;28;19926;-67
2022/09/12 00:51:10;;;;;;;;;;;13.80;99.90;;;;;;4992416;28;19925;-67
2022/09/12 00:53:39;;;;;;;;;;;13.80;99.90;;;;;;4996091;28;19972;-67
2022/09/12 00:56:07;;;;;;;;;;;13.80;99.90;;;;;;4996381;28;20390;-67
2022/09/12 00:58:36;;;;;;;;;;;13.80;99.90;;;;;;4993410;28;19929;-67
2022/09/12 01:01:03;;;;;;;;;;;13.70;99.90;;;;;;4998092;28;20329;-67
2022/09/12 01:03:31;;;;;;;;;;;13.70;99.90;;;;;;4998544;28;19926;-67
2022/09/12 01:06:02;;;;;;;;;;;13.70;99.90;;;;;;5019532;28;20345;-67
2022/09/12 01:08:29;;;;;;;;;;;13.60;99.90;;;;;;4984439;28;19925;-66
2022/09/12 01:10:57;;;;;;;;;;;13.60;99.90;;;;;;5005873;28;20389;-67
2022/09/12 01:13:24;;;;;;;;;;;13.60;99.90;;;;;;5001376;28;19933;-67
2022/09/12 01:15:53;;;;;;;;;;;13.70;99.90;;;;;;5000300;28;20429;-67
2022/09/12 01:18:23;;;;;;;;;;;13.70;99.90;;;;;;5011237;28;19925;-67
2022/09/12 01:21:00;;;;;;;;;;;13.70;99.90;;;;;;5013388;28;20057;-67
2022/09/12 01:23:50;;;;;;;;;;;13.70;99.90;;;;;;5017117;28;20433;-67
2022/09/12 01:26:31;;;;;;;;;;;13.70;99.90;;;;;;4999291;28;20353;-67
2022/09/12 01:29:12;;;;;;;;;;;13.70;99.90;;;;;;4989810;28;19926;-67
2022/09/12 01:31:46;;;;;;;;;;;13.70;99.90;;;;;;5013433;28;19932;-67
2022/09/12 01:34:18;;;;;;;;;;;13.70;99.90;;;;;;5015918;28;20278;-67
2022/09/12 01:36:51;;;;;;;;;;;13.50;99.90;;;;;;4992748;28;19926;-66
2022/09/12 01:39:23;;;;;;;;;;;13.40;99.90;;;;;;5022895;28;19925;-67
2022/09/12 01:41:54;;;;;;;;;;;13.30;99.90;;;;;;5019277;28;19926;-67
2022/09/12 01:44:26;;;;;;;;;;;13.30;99.90;;;;;;4997556;28;19932;-66
2022/09/12 01:46:56;;;;;;;;;;;13.20;99.90;;;;;;5019131;28;19926;-67
2022/09/12 01:49:24;;;;;;;;;;;13.30;99.90;;;;;;5021148;28;19925;-67
2022/09/12 01:51:55;;;;;;;;;;;13.30;99.90;;;;;;4997212;28;19929;-66
2022/09/12 01:54:25;;;;;;;;;;;13.20;99.90;;;;;;5022647;28;19930;-67
2022/09/12 01:56:55;;;;;;;;;;;13.20;99.90;;;;;;5007019;28;19976;-67
2022/09/12 01:59:23;;;;;;;;;;;13.30;99.90;;;;;;5001372;28;19933;-67
2022/09/12 02:01:54;;;;;;;;;;;13.30;99.90;;;;;;5010388;28;19972;-67
2022/09/12 02:04:25;;;;;;;;;;;13.20;99.90;;;;;;5009502;28;19930;-67
2022/09/12 02:06:54;;;;;;;;;;;13.20;99.90;;;;;;5014693;28;19933;-66
2022/09/12 02:09:23;;;;;;;;;;;13.10;99.90;;;;;;5024725;28;19930;-67
2022/09/12 02:11:50;;;;;;;;;;;13.10;99.90;;;;;;5016732;28;19930;-67
2022/09/12 02:14:20;;;;;;;;;;;13.10;99.90;;;;;;5019862;28;19930;-67
2022/09/12 02:16:48;;;;;;;;;;;13.10;99.90;;;;;;5003140;28;20393;-67
2022/09/12 02:19:16;;;;;;;;;;;13.10;99.90;;;;;;5002600;28;19932;-67
2022/09/12 02:21:46;;;;;;;;;;;13.20;99.90;;;;;;4996280;28;20024;-67
2022/09/12 02:24:14;;;;;;;;;;;13.10;99.90;;;;;;5013619;28;20270;-67
2022/09/12 02:26:44;;;;;;;;;;;13.10;99.90;;;;;;4993289;28;19925;-67
2022/09/12 02:29:11;;;;;;;;;;;13.10;99.90;;;;;;5023777;28;19926;-67
2022/09/12 02:31:41;;;;;;;;;;;13.00;99.90;;;;;;4995572;28;19964;-67
2022/09/12 02:34:15;;;;;;;;;;;13.00;99.90;;;;;;5011748;28;19930;-67
2022/09/12 02:36:49;;;;;;;;;;;13.10;99.90;;;;;;5021664;28;19926;-67
2022/09/12 02:39:18;;;;;;;;;;;13.10;99.90;;;;;;5021296;28;20032;-67
2022/09/12 02:41:46;;;;;;;;;;;13.00;99.90;;;;;;5004615;28;19975;-66
2022/09/12 02:44:12;;;;;;;;;;;13.00;99.90;;;;;;5006638;28;20461;-67
2022/09/12 02:46:41;;;;;;;;;;;13.00;99.90;;;;;;4999595;28;19932;-66
2022/09/12 02:49:08;;;;;;;;;;;13.00;99.90;;;;;;5003056;28;19933;-67
2022/09/12 02:51:35;;;;;;;;;;;13.00;99.90;;;;;;5002799;28;19925;-67
2022/09/12 02:54:05;;;;;;;;;;;13.00;99.90;;;;;;5013924;28;20286;-67
2022/09/12 02:56:32;;;;;;;;;;;13.00;99.90;;;;;;5024230;28;19926;-66
2022/09/12 02:59:01;;;;;;;;;;;13.00;99.90;;;;;;5003073;28;19925;-67
2022/09/12 03:01:39;;;;;;;;;;;13.00;99.90;;;;;;5013235;28;20368;-66
2022/09/12 03:04:12;;;;;;;;;;;12.90;99.90;;;;;;5007892;28;20002;-66
2022/09/12 03:06:44;;;;;;;;;;;12.90;99.90;;;;;;5012314;28;20012;-67
2022/09/12 03:09:16;;;;;;;;;;;12.90;99.90;;;;;;5009299;28;19926;-66
2022/09/12 03:11:49;;;;;;;;;;;12.90;99.90;;;;;;4996284;28;19933;-66
2022/09/12 03:14:26;;;;;;;;;;;13.00;99.90;;;;;;5018242;28;19926;-67
2022/09/12 03:16:56;;;;;;;;;;;13.00;99.90;;;;;;5006724;28;19925;-67
2022/09/12 03:19:25;;;;;;;;;;;12.90;99.90;;;;;;5012770;28;20356;-67
2022/09/12 03:21:58;;;;;;;;;;;12.90;99.90;;;;;;5012850;28;20339;-67
2022/09/12 03:24:30;;;;;;;;;;;13.00;99.90;;;;;;5010100;28;19973;-67
2022/09/12 03:27:01;;;;;;;;;;;12.90;99.90;;;;;;5001703;28;19929;-67
2022/09/12 03:29:28;;;;;;;;;;;12.90;99.90;;;;;;5003413;28;19930;-67
2022/09/12 03:31:56;;;;;;;;;;;12.80;99.90;;;;;;5005733;28;19929;-66
2022/09/12 03:34:24;;;;;;;;;;;12.80;99.90;;;;;;5016516;28;19932;-66
2022/09/12 03:36:51;;;;;;;;;;;12.70;99.90;;;;;;5003439;28;19930;-66
2022/09/12 03:39:19;;;;;;;;;;;12.70;99.90;;;;;;5002639;28;19991;-67
2022/09/12 03:41:47;;;;;;;;;;;12.70;99.90;;;;;;5005572;28;19932;-66
2022/09/12 03:44:14;;;;;;;;;;;12.70;99.90;;;;;;5024244;28;19930;-67
2022/09/12 03:46:41;;;;;;;;;;;12.70;99.90;;;;;;5024917;28;19929;-66
2022/09/12 03:49:07;;;;;;;;;;;12.80;99.90;;;;;;5001636;28;19936;-67
2022/09/12 03:51:34;;;;;;;;;;;12.80;99.90;;;;;;4997874;28;19930;-67
2022/09/12 03:54:01;;;;;;;;;;;12.80;99.90;;;;;;5012715;28;19929;-67
2022/09/12 03:56:28;;;;;;;;;;;12.80;99.90;;;;;;4995313;28;19925;-67
2022/09/12 03:58:56;;;;;;;;;;;12.70;99.90;;;;;;5020431;28;19937;-67
2022/09/12 04:01:23;;;;;;;;;;;12.70;99.90;;;;;;5004329;28;19929;-66
2022/09/12 04:03:51;;;;;;;;;;;12.70;99.90;;;;;;5000880;28;19926;-66
2022/09/12 04:06:19;;;;;;;;;;;12.70;99.90;;;;;;4992676;28;19925;-67
2022/09/12 04:08:49;;;;;;;;;;;12.80;99.90;;;;;;5020418;28;19933;-66
2022/09/12 04:11:16;;;;;;;;;;;12.80;99.90;;;;;;5012250;28;19925;-66
2022/09/12 04:13:43;;;;;;;;;;;12.80;99.90;;;;;;5010950;28;19934;-66
2022/09/12 04:16:12;;;;;;;;;;;12.80;99.90;;;;;;5012472;28;19969;-67
2022/09/12 04:18:39;;;;;;;;;;;12.80;99.90;;;;;;4997001;28;20388;-66
2022/09/12 04:21:06;;;;;;;;;;;12.70;99.90;;;;;;5020270;28;19929;-67
2022/09/12 04:23:33;;;;;;;;;;;12.70;99.90;;;;;;5010427;28;19948;-66
2022/09/12 04:26:01;;;;;;;;;;;12.70;99.90;;;;;;5012509;28;19926;-67
2022/09/12 04:28:28;;;;;;;;;;;12.70;99.90;;;;;;5024133;28;19926;-66
2022/09/12 04:30:56;;;;;;;;;;;12.70;99.90;;;;;;5014925;28;19961;-67
2022/09/12 04:33:25;;;;;;;;;;;12.60;99.90;;;;;;5020755;28;20366;-66
2022/09/12 04:35:52;;;;;;;;;;;12.60;99.90;;;;;;5003422;28;20316;-66
2022/09/12 04:38:18;;;;;;;;;;;12.60;99.90;;;;;;4995047;28;19929;-66
2022/09/12 04:40:46;;;;;;;;;;;12.60;99.90;;;;;;5015248;28;19930;-66
2022/09/12 04:43:12;;;;;;;;;;;12.60;99.90;;;;;;4995461;28;19925;-66
2022/09/12 04:45:39;;;;;;;;;;;12.50;99.90;;;;;;5006381;28;19929;-66
2022/09/12 04:48:06;;;;;;;;;;;12.50;99.90;;;;;;5008838;28;19926;-67
2022/09/12 04:50:34;;;;;;;;;;;12.60;99.90;;;;;;5003979;28;20353;-70
2022/09/12 04:53:01;;;;;;;;;;;12.50;99.90;;;;;;5005726;28;19933;-68
2022/09/12 04:55:28;;;;;;;;;;;12.50;99.90;;;;;;5009784;28;19925;-67
2022/09/12 04:57:55;;;;;;;;;;;12.50;99.90;;;;;;4995879;28;19957;-67
2022/09/12 05:00:21;;;;;;;;;;;12.50;99.90;;;;;;5007994;28;19930;-64
2022/09/12 05:02:50;;;;;;;;;;;12.50;99.90;;;;;;5007323;28;21553;-67
2022/09/12 05:05:17;;;;;;;;;;;12.50;99.90;;;;;;4996634;28;19933;-68
2022/09/12 05:07:45;;;;;;;;;;;12.50;99.90;;;;;;4999242;28;19988;-67
2022/09/12 05:10:12;;;;;;;;;;;12.50;99.90;;;;;;5009443;28;19930;-66
2022/09/12 05:12:39;;;;;;;;;;;12.40;99.90;;;;;;5002010;28;20303;-67
2022/09/12 05:15:06;;;;;;;;;;;12.40;99.90;;;;;;5010407;28;19979;-67
2022/09/12 05:17:33;;;;;;;;;;;12.40;99.90;;;;;;5010285;28;19980;-67
2022/09/12 05:20:00;;;;;;;;;;;12.40;99.90;;;;;;5009972;28;19925;-67
2022/09/12 05:22:27;;;;;;;;;;;12.50;99.90;;;;;;5000967;28;20008;-67
2022/09/12 05:24:55;;;;;;;;;;;12.40;99.90;;;;;;5011245;28;19965;-67
2022/09/12 05:27:22;;;;;;;;;;;12.50;99.90;;;;;;4985493;28;19932;-67
2022/09/12 05:29:49;;;;;;;;;;;12.40;99.90;;;;;;5006254;28;19926;-66
2022/09/12 05:32:16;;;;;;;;;;;12.50;99.90;;;;;;5010345;28;19932;-67
2022/09/12 05:34:43;;;;;;;;;;;12.50;99.90;;;;;;5007344;28;20012;-67
2022/09/12 05:37:09;;;;;;;;;;;12.50;99.90;;;;;;5005476;28;19933;-67
2022/09/12 05:39:36;;;;;;;;;;;12.50;99.90;;;;;;5010483;28;19925;-67
2022/09/12 05:42:05;;;;;;;;;;;12.60;99.90;;;;;;5000159;28;19926;-67
2022/09/12 05:44:32;;;;;;;;;;;12.70;99.90;;;;;;4991723;28;19925;-67
2022/09/12 05:46:58;;;;;;;;;;;12.80;99.90;;;;;;5001184;28;19925;-67
2022/09/12 05:49:25;;;;;;;;;;;12.80;99.90;;;;;;5005427;28;19933;-67
2022/09/12 05:51:52;;;;;;;;;;;12.90;99.90;;;;;;4993980;28;19925;-67
2022/09/12 05:54:20;;;;;;;;;;;13.00;99.90;;;;;;5019117;28;20028;-67
2022/09/12 05:56:47;;;;;;;;;;;13.10;99.90;;;;;;5018699;28;20016;-66
2022/09/12 05:59:16;;;;;;;;;;;13.10;99.90;;;;;;5010142;28;20344;-65
2022/09/12 06:01:43;;;;;;;;;;;13.10;99.90;;;;;;4992352;28;20298;-66
2022/09/12 06:04:10;;;;;;;;;;;13.20;99.90;;;;;;5006330;28;19926;-66
2022/09/12 06:06:40;;;;;;;;;;;13.30;99.90;;;;;;5005211;28;19925;-66
2022/09/12 06:09:07;;;;;;;;;;;13.40;99.90;;;;;;4994420;28;19926;-65
2022/09/12 06:11:36;;;;;;;;;;;13.40;99.90;;;;;;5000500;28;19929;-66
2022/09/12 06:14:03;;;;;;;;;;;13.50;99.90;;;;;;5002260;28;20462;-66
2022/09/12 06:16:32;;;;;;;;;;;13.70;99.90;;;;;;5008821;28;19929;-66
2022/09/12 06:19:00;;;;;;;;;;;13.70;99.90;;;;;;5000604;28;19926;-66
2022/09/12 06:21:27;;;;;;;;;;;13.80;99.90;;;;;;5008771;28;19933;-66
2022/09/12 06:23:54;;;;;;;;;;;13.90;99.90;;;;;;4999466;28;19929;-66
2022/09/12 06:26:22;;;;;;;;;;;14.00;99.90;;;;;;5009470;28;19932;-66
2022/09/12 06:28:49;;;;;;;;;;;14.10;99.90;;;;;;5008339;28;19929;-66
2022/09/12 06:31:17;;;;;;;;;;;14.10;99.90;;;;;;5005047;28;19930;-66
2022/09/12 06:33:46;;;;;;;;;;;14.20;99.90;;;;;;4993937;28;19988;-66
2022/09/12 06:36:14;;;;;;;;;;;14.30;99.90;;;;;;5008939;28;20308;-66
2022/09/12 06:38:42;;;;;;;;;;;14.40;99.90;;;;;;5007938;28;19932;-66
2022/09/12 06:41:10;;;;;;;;;;;14.50;99.90;;;;;;4991560;28;19929;-66
2022/09/12 06:43:37;;;;;;;;;;;14.50;99.90;;;;;;5003115;28;20421;-64
2022/09/12 06:46:04;;;;;;;;;;;14.60;99.90;;;;;;5011026;28;19932;-64
2022/09/12 06:48:31;;;;;;;;;;;14.60;99.90;;;;;;5011837;28;19932;-64
2022/09/12 06:51:01;;;;;;;;;;;14.80;99.90;;;;;;4994091;28;20405;-64
2022/09/12 06:53:28;;;;;;;;;;;14.90;99.90;;;;;;4982765;28;19961;-65
2022/09/12 06:55:56;;;;;;;;;;;15.00;99.90;;;;;;5007635;28;19926;-64
2022/09/12 06:58:23;;;;;;;;;;;15.00;99.90;;;;;;4981804;28;19926;-64
2022/09/12 07:00:50;;;;;;;;;;;15.10;99.90;;;;;;4995238;28;19925;-64
2022/09/12 07:03:17;;;;;;;;;;;15.30;99.90;;;;;;5011794;28;19929;-64
2022/09/12 07:05:43;;;;;;;;;;;15.40;99.90;;;;;;5012622;28;19933;-64
2022/09/12 07:08:11;;;;;;;;;;;15.50;99.90;;;;;;5012263;28;19952;-64
2022/09/12 07:10:38;;;;;;;;;;;15.60;99.90;;;;;;5012171;28;20344;-64
2022/09/12 07:13:05;;;;;;;;;;;15.70;99.90;;;;;;5013937;28;19933;-64
2022/09/12 07:15:34;;;;;;;;;;;15.90;99.90;;;;;;5011654;28;20422;-65
2022/09/12 07:18:01;;;;;;;;;;;16.00;99.90;;;;;;5008428;28;19945;-64
2022/09/12 07:20:28;;;;;;;;;;;16.20;99.90;;;;;;4987425;28;20313;-64
2022/09/12 07:22:55;;;;;;;;;;;16.40;99.90;;;;;;5007316;28;19925;-64
2022/09/12 07:25:23;;;;;;;;;;;16.50;99.90;;;;;;5016157;28;20016;-64
2022/09/12 07:27:50;;;;;;;;;;;16.70;99.90;;;;;;5022346;28;19926;-65
2022/09/12 07:30:16;;;;;;;;;;;16.80;99.90;;;;;;5011346;28;19933;-64
2022/09/12 07:32:43;;;;;;;;;;;16.90;99.90;;;;;;4985771;28;19937;-64
2022/09/12 07:35:10;;;;;;;;;;;17.00;99.90;;;;;;5009704;28;19929;-65
2022/09/12 07:37:37;;;;;;;;;;;17.10;99.90;;;;;;5003384;28;19960;-64
2022/09/12 07:40:04;;;;;;;;;;;17.30;99.90;;;;;;5011248;28;19925;-64
2022/09/12 07:42:32;;;;;;;;;;;17.30;99.90;;;;;;5010902;28;19926;-64
2022/09/12 07:44:59;;;;;;;;;;;17.50;99.90;;;;;;5003393;28;19969;-64
2022/09/12 07:47:26;;;;;;;;;;;17.60;99.90;;;;;;5008488;28;19933;-64
2022/09/12 07:49:52;;;;;;;;;;;17.70;99.90;;;;;;4981588;28;19933;-64
2022/09/12 07:52:19;;;;;;;;;;;17.90;99.90;;;;;;5007598;28;19925;-64
2022/09/12 07:54:46;;;;;;;;;;;18.00;99.90;;;;;;4981600;28;19926;-64
2022/09/12 07:57:14;;;;;;;;;;;18.10;99.90;;;;;;5005438;28;19937;-64
2022/09/12 07:59:43;;;;;;;;;;;18.10;99.90;;;;;;5005629;28;19992;-64
2022/09/12 08:02:12;;;;;;;;;;;18.10;99.90;;;;;;5004156;28;20320;-64
2022/09/12 08:04:38;;;;;;;;;;;18.00;99.90;;;;;;5009153;28;19929;-64
2022/09/12 08:07:05;;;;;;;;;;;18.00;99.90;;;;;;5002714;28;19976;-64
2022/09/12 08:09:32;;;;;;;;;;;18.00;99.90;;;;;;5010927;28;19925;-64
2022/09/12 08:11:59;;;;;;;;;;;18.00;99.90;;;;;;5002601;28;19926;-64
2022/09/12 08:14:26;;;;;;;;;;;18.00;99.90;;;;;;5010710;28;19925;-64
2022/09/12 08:16:54;;;;;;;;;;;17.90;99.90;;;;;;4979639;28;20457;-64
2022/09/12 08:19:22;;;;;;;;;;;17.80;99.90;;;;;;5012817;28;20415;-64
2022/09/12 08:21:49;;;;;;;;;;;17.80;99.90;;;;;;5020502;28;19932;-65
2022/09/12 08:24:16;;;;;;;;;;;17.80;99.90;;;;;;5004005;28;19926;-64
2022/09/12 08:26:43;;;;;;;;;;;17.80;99.90;;;;;;5001975;28;20029;-64
2022/09/12 08:29:09;;;;;;;;;;;18.00;99.90;;;;;;4980948;28;19972;-64
2022/09/12 08:31:36;;;;;;;;;;;18.10;99.90;;;;;;5009116;28;19933;-64
2022/09/12 08:34:05;;;;;;;;;;;18.20;99.90;;;;;;5000456;28;20302;-64
2022/09/12 08:36:32;;;;;;;;;;;18.30;99.90;;;;;;5008667;28;19926;-64
2022/09/12 08:39:00;;;;;;;;;;;18.40;99.90;;;;;;5008935;28;20313;-64
2022/09/12 08:41:29;;;;;;;;;;;18.50;99.90;;;;;;4993554;28;19925;-64
2022/09/12 08:44:08;;;;;;;;;;;18.70;99.90;;;;;;5010477;28;20409;-65
2022/09/12 08:46:38;;;;;;;;;;;18.80;99.90;;;;;;4978387;28;19926;-64
2022/09/12 08:49:09;;;;;;;;;;;18.90;99.90;;;;;;5006994;28;19930;-64
2022/09/12 08:51:36;;;;;;;;;;;19.00;99.90;;;;;;5009025;28;19932;-64
2022/09/12 08:54:04;;;;;;;;;;;19.10;99.90;;;;;;5005851;28;19929;-65
2022/09/12 08:56:34;;;;;;;;;;;19.20;99.90;;;;;;5001025;28;19932;-64
2022/09/12 08:59:01;;;;;;;;;;;19.30;99.90;;;;;;5003989;28;20021;-64
2022/09/12 09:01:30;;;;;;;;;;;19.30;99.90;;;;;;4992070;28;19929;-65
2022/09/12 09:04:16;;;;;;;;;;;19.40;99.90;;;;;;5003681;28;19925;-64
2022/09/12 09:06:58;;;;;;;;;;;19.50;99.90;;;;;;5007879;28;19933;-64
2022/09/12 09:09:33;;;;;;;;;;;19.60;99.90;;;;;;4987638;28;19925;-64
2022/09/12 09:12:04;;;;;;;;;;;19.70;99.90;;;;;;4984190;28;19926;-65
2022/09/12 09:14:49;;;;;;;;;;;19.80;99.90;;;;;;5004929;28;19933;-64
2022/09/12 09:17:19;;;;;;;;;;;20.00;99.90;;;;;;5005323;28;19929;-64
2022/09/12 09:19:49;;;;;;;;;;;20.10;99.90;;;;;;5010020;28;19925;-64
2022/09/12 09:22:18;;;;;;;;;;;20.20;99.90;;;;;;5002892;28;19930;-63
2022/09/12 09:24:49;;;;;;;;;;;20.40;99.90;;;;;;5008485;28;19925;-69
2022/09/12 09:27:20;;;;;;;;;;;20.50;99.90;;;;;;5010960;28;20029;-64
2022/09/12 09:29:48;;;;;;;;;;;20.60;99.90;;;;;;5008576;28;19933;-64
2022/09/12 09:32:18;;;;;;;;;;;20.70;99.90;;;;;;4994598;28;19972;-64
2022/09/12 09:34:44;;;;;;;;;;;20.80;99.90;;;;;;5007052;28;19926;-64
2022/09/12 09:37:16;;;;;;;;;;;20.90;99.90;;;;;;5038198;22;19981;-65
2022/09/12 09:39:49;;;;;;;;;;;21.00;99.90;;;;;;5049859;28;20002;-66
2022/09/12 09:42:26;;;;;;;;;;;21.10;99.90;;;;;;5070413;28;19956;-66
2022/09/12 09:44:53;;;;;;;;;;;21.10;99.90;;;;;;5059867;28;19992;-66
2022/09/12 09:47:20;;;;;;;;;;;21.20;99.90;;;;;;5049097;28;20014;-66
2022/09/12 09:49:47;;;;;;;;;;;21.40;99.90;;;;;;5045808;28;19937;-66
2022/09/12 09:52:14;;;;;;;;;;;21.50;99.90;;;;;;5046014;28;19924;-66
2022/09/12 09:54:44;;;;;;;;;;;21.60;99.90;;;;;;5044178;28;20466;-67
2022/09/12 09:57:29;;;;;;;;;;;21.60;99.90;;;;;;5052401;28;19963;-66
2022/09/12 09:59:58;;;;;;;;;;;21.70;99.90;;;;;;5050330;28;19929;-66
2022/09/12 10:02:25;;;;;;;;;;;21.90;99.90;;;;;;5045456;28;20453;-66
2022/09/12 10:04:54;;;;;;;;;;;22.00;99.90;;;;;;5061625;28;19928;-66
2022/09/12 10:07:21;;;;;;;;;;;22.10;99.90;;;;;;5047008;28;19931;-66
2022/09/12 10:10:04;;;;;;;;;;;22.30;99.90;;;;;;5046377;28;20411;-66
2022/09/12 10:12:31;;;;;;;;;;;22.50;99.90;;;;;;5053144;28;19986;-68
2022/09/12 10:15:00;;;;;;;;;;;22.60;99.90;;;;;;5069830;28;19924;-67
2022/09/12 10:17:28;;;;;;;;;;;22.80;99.90;;;;;;5052315;28;20037;-66
2022/09/12 10:19:55;;;;;;;;;;;22.90;99.90;;;;;;5051446;28;20015;-66
2022/09/12 10:22:23;;;;;;;;;;;23.10;99.90;;;;;;5055899;28;19928;-67
2022/09/12 10:24:51;;;;;;;;;;;23.30;99.90;;;;;;5055334;28;20334;-67
2022/09/12 10:27:20;;;;;;;;;;;23.50;99.90;;;;;;5055802;28;19924;-67
2022/09/12 10:29:48;;;;;;;;;;;23.70;99.90;;;;;;5055736;28;20014;-67
2022/09/12 10:32:23;;;;;;;;;;;23.90;99.90;;;;;;5055970;28;19928;-66
2022/09/12 10:34:53;;;;;;;;;;;23.90;99.90;;;;;;5055283;28;20380;-67
2022/09/12 10:37:24;;;;;;;;;;;24.10;99.90;;;;;;5052496;28;19924;-66
2022/09/12 10:39:53;;;;;;;;;;;24.20;99.90;;;;;;5050138;28;19925;-67
2022/09/12 10:42:35;;;;;;;;;;;24.50;99.90;;;;;;5051652;28;19928;-66
2022/09/12 10:45:02;;;;;;;;;;;24.60;99.90;;;;;;5048609;28;19928;-67
2022/09/12 10:47:31;;;;;;;;;;;24.70;99.90;;;;;;5055670;28;19924;-67
2022/09/12 10:50:18;;;;;;;;;;;24.90;99.90;;;;;;5054827;28;19925;-67
2022/09/12 10:52:45;;;;;;;;;;;25.20;99.90;;;;;;5055639;28;19924;-66
2022/09/12 10:55:13;;;;;;;;;;;25.40;99.90;;;;;;5055194;28;19929;-67
2022/09/12 10:57:53;;;;;;;;;;;25.50;99.90;;;;;;5053219;28;19939;-67
2022/09/12 11:00:26;;;;;;;;;;;25.70;99.90;;;;;;5054724;28;20381;-67
2022/09/12 11:03:02;;;;;;;;;;;26.10;99.90;;;;;;5055785;28;20015;-67
2022/09/12 11:05:36;;;;;;;;;;;26.20;99.90;;;;;;5076195;28;20366;-67
2022/09/12 11:08:08;;;;;;;;;;;26.60;99.90;;;;;;5054876;28;19932;-67
2022/09/12 11:10:41;;;;;;;;;;;26.90;99.90;;;;;;5054627;28;19925;-65
2022/09/12 11:13:14;;;;;;;;;;;27.20;99.90;;;;;;5055483;28;19924;-65
2022/09/12 11:15:52;;;;;;;;;;;27.20;99.90;;;;;;5055017;28;19924;-66
2022/09/12 11:18:27;;;;;;;;;;;27.30;99.90;;;;;;5048166;28;19924;-67
2022/09/12 11:21:01;;;;;;;;;;;27.90;99.90;;;;;;5044039;28;19925;-67
2022/09/12 11:23:38;;;;;;;;;;;28.20;99.90;;;;;;5054800;28;19925;-67
2022/09/12 11:26:12;;;;;;;;;;;32.40;99.90;;;;;;5052764;28;20042;-66
2022/09/12 11:28:42;;;;;;;;;;;34.30;99.90;;;;;;5054438;28;20066;-68
2022/09/12 11:31:17;;;;;;;;;;;37.40;99.90;;;;;;5054201;28;19936;-67
2022/09/12 11:33:47;;;;;;;;;;;38.90;99.90;;;;;;5049704;28;19928;-66
2022/09/12 11:36:27;;;;;;;;;;;40.60;99.90;;;;;;5054868;28;20307;-65
2022/09/12 11:39:01;;;;;;;;;;;41.50;99.90;;;;;;5071512;28;19933;-64
2022/09/12 11:41:32;;;;;;;;;;;41.40;99.90;;;;;;5051670;28;20456;-65
2022/09/12 11:44:02;;;;;;;;;;;42.70;99.90;;;;;;5077815;28;20437;-65
2022/09/12 11:46:32;;;;;;;;;;;43.40;99.90;;;;;;5054388;28;19924;-66
2022/09/12 11:49:04;;;;;;;;;;;43.80;99.90;;;;;;5054005;28;20346;-65
2022/09/12 11:51:33;;;;;;;;;;;44.70;99.90;;;;;;5054459;28;19936;-66
2022/09/12 11:54:03;;;;;;;;;;;44.80;99.90;;;;;;5086774;28;20023;-65
2022/09/12 11:56:30;;;;;;;;;;;44.80;99.90;;;;;;5054602;28;20453;-65
2022/09/12 11:58:59;;;;;;;;;;;45.60;99.90;;;;;;5046723;28;20414;-65
2022/09/12 12:01:28;;;;;;;;;;;44.20;99.90;;;;;;5054287;28;19924;-66
2022/09/12 12:03:56;;;;;;;;;;;43.50;99.90;;;;;;5070211;28;19981;-65
2022/09/12 12:06:27;;;;;;;;;;;43.40;99.90;;;;;;5054092;28;19932;-65
2022/09/12 12:08:54;;;;;;;;;;;42.50;99.90;;;;;;5064267;28;19971;-65
2022/09/12 12:11:29;;;;;;;;;;;43.30;99.90;;;;;;5054070;28;19967;-66
2022/09/12 12:13:58;;;;;;;;;;;44.70;99.90;;;;;;5042601;28;20464;-65
2022/09/12 12:16:25;;;;;;;;;;;44.40;99.90;;;;;;5053572;28;19928;-65
2022/09/12 12:18:56;;;;;;;;;;;44.30;99.90;;;;;;5049476;28;19964;-64
2022/09/12 12:21:38;;;;;;;;;;;43.80;99.90;;;;;;5047791;28;19974;-64
2022/09/12 12:24:19;;;;;;;;;;;43.80;99.90;;;;;;5064176;28;20292;-65
2022/09/12 12:26:56;;;;;;;;;;;43.30;99.70;;;;;;5052378;28;19935;-65
2022/09/12 12:29:38;;;;;;;;;;;43.00;99.90;;;;;;5047986;28;19928;-65
2022/09/12 12:32:21;;;;;;;;;;;43.20;99.80;;;;;;5049859;28;19925;-66
2022/09/12 12:34:48;;;;;;;;;;;43.90;99.80;;;;;;5064707;28;20472;-66
2022/09/12 12:37:33;;;;;;;;;;;44.00;98.90;;;;;;5051027;28;19974;-65
2022/09/12 12:40:08;;;;;;;;;;;43.20;98.80;;;;;;5054440;28;20394;-65
2022/09/12 12:43:04;;;;;;;;;;;42.30;98.30;;;;;;5068153;28;19925;-65
2022/09/12 12:45:59;;;;;;;;;;;41.60;98.90;;;;;;5054314;28;20381;-65
2022/09/12 12:48:26;;;;;;;;;;;41.90;98.40;;;;;;5067474;28;20019;-65
2022/09/12 12:50:53;;;;;;;;;;;42.90;97.80;;;;;;5049571;28;19924;-65
2022/09/12 12:53:23;;;;;;;;;;;43.60;97.70;;;;;;5079468;28;20054;-65
2022/09/12 12:55:52;;;;;;;;;;;42.40;97.50;;;;;;5048612;28;20023;-65
2022/09/12 12:58:29;;;;;;;;;;;41.80;96.90;;;;;;5054627;28;20460;-66
2022/09/12 13:01:05;;;;;;;;;;;41.90;97.70;;;;;;5049147;28;19924;-66
2022/09/12 13:03:33;;;;;;;;;;;41.70;96.70;;;;;;5051996;28;19936;-66
2022/09/12 13:06:01;;;;;;;;;;;42.10;96.20;;;;;;5054279;28;19924;-66
2022/09/12 13:08:30;;;;;;;;;;;42.00;95.70;;;;;;5051539;28;19925;-65
2022/09/12 13:11:00;;;;;;;;;;;42.00;96.40;;;;;;5048106;28;20040;-65
2022/09/12 13:13:28;;;;;;;;;;;42.20;95.70;;;;;;5054243;28;19982;-65
2022/09/12 13:15:55;;;;;;;;;;;42.80;95.10;;;;;;5061041;28;20015;-66
2022/09/12 13:18:25;;;;;;;;;;;43.40;96.30;;;;;;5052458;28;19929;-65
2022/09/12 13:20:54;;;;;;;;;;;43.30;94.80;;;;;;5053335;28;20031;-65
2022/09/12 13:23:25;;;;;;;;;;;43.00;95.30;;;;;;5053838;28;19924;-69
2022/09/12 13:25:55;;;;;;;;;;;43.10;94.50;;;;;;5046036;28;19978;-66
2022/09/12 13:28:25;;;;;;;;;;;43.10;94.20;;;;;;5045840;28;19928;-66
2022/09/12 13:30:57;;;;;;;;;;;43.40;94.70;;;;;;5048983;28;20426;-69
2022/09/12 13:33:30;;;;;;;;;;;42.30;94.20;;;;;;5053894;28;19924;-66
2022/09/12 13:36:10;;;;;;;;;;;41.80;94.70;;;;;;5054211;28;19924;-66
2022/09/12 13:38:41;;;;;;;;;;;40.30;94.90;;;;;;5047361;28;19931;-66
2022/09/12 13:41:16;;;;;;;;;;;38.40;95.00;;;;;;5070561;28;20015;-66
2022/09/12 13:43:46;;;;;;;;;;;38.30;95.70;;;;;;5051585;28;20315;-67
2022/09/12 13:46:15;;;;;;;;;;;38.40;95.00;;;;;;5047074;28;19928;-67
2022/09/12 13:48:42;;;;;;;;;;;39.20;95.00;;;;;;5049948;28;19924;-67
2022/09/12 13:51:18;;;;;;;;;;;39.70;94.70;;;;;;5052226;28;19932;-67
2022/09/12 13:53:47;;;;;;;;;;;39.60;94.60;;;;;;5049674;28;19932;-66
2022/09/12 13:56:15;;;;;;;;;;;39.60;95.60;;;;;;5052139;28;19974;-66
2022/09/12 13:58:50;;;;;;;;;;;39.40;95.80;;;;;;5056379;28;19932;-66
2022/09/12 14:01:17;;;;;;;;;;;39.30;95.80;;;;;;5077506;28;19925;-67
2022/09/12 14:06:36;;;;;;;;;;;39.60;96.10;;;;;;5055845;28;19932;-67
2022/09/12 14:09:12;;;;;;;;;;;39.40;95.40;;;;;;5055851;28;20308;-66
2022/09/12 14:11:39;;;;;;;;;;;39.40;95.50;;;;;;5054503;28;19970;-67
2022/09/12 14:14:18;;;;;;;;;;;39.30;95.50;;;;;;5056409;28;19970;-67
2022/09/12 14:16:44;;;;;;;;;;;38.80;95.80;;;;;;5056200;28;19925;-66
2022/09/12 14:19:12;;;;;;;;;;;37.90;95.80;;;;;;5073697;28;19993;-66
2022/09/12 14:21:39;;;;;;;;;;;38.20;96.10;;;;;;5056190;28;19925;-66
2022/09/12 14:24:07;;;;;;;;;;;37.70;96.70;;;;;;5056502;28;19925;-66
2022/09/12 14:26:34;;;;;;;;;;;37.80;96.50;;;;;;5055628;28;19924;-66
2022/09/12 14:29:04;;;;;;;;;;;37.70;96.10;;;;;;5058929;28;19925;-66
2022/09/12 14:31:34;;;;;;;;;;;37.10;96.30;;;;;;5055089;28;19925;-65
2022/09/12 14:34:09;;;;;;;;;;;37.20;96.50;;;;;;5055668;28;19925;-65